Time;durP1;ratioP1;P1;durP2;ratioP2;P2;SDS_P1;SDS_P2;PMS_P1;PMS_P2;Temp;Humidity;BMP_temperature;BMP_pressure;BME280_temperature;BME280_humidity;BME280_pressure;Samples;Min_cycle;Max_cycle;Signal;HPM_P1;HPM_P2
2022/03/28 00:00:46;;;;;;;7.07;3.28;;;5.90;99.90;;;;;;5055129;28;20021;-68
2022/03/28 00:03:11;;;;;;;4.57;2.58;;;5.90;99.90;;;;;;5055194;28;20025;-67
2022/03/28 00:05:37;;;;;;;7.07;2.97;;;5.80;99.90;;;;;;5055411;28;20048;-67
2022/03/28 00:08:04;;;;;;;11.20;3.88;;;5.70;99.90;;;;;;5055685;28;20020;-67
2022/03/28 00:10:29;;;;;;;17.27;3.25;;;5.80;99.90;;;;;;5055044;28;20040;-67
2022/03/28 00:12:55;;;;;;;13.15;2.47;;;5.80;99.90;;;;;;5055021;28;20504;-67
2022/03/28 00:15:20;;;;;;;13.30;2.67;;;5.80;99.90;;;;;;5055494;28;20025;-67
2022/03/28 00:17:47;;;;;;;13.20;2.72;;;5.80;99.90;;;;;;5055030;28;20075;-67
2022/03/28 00:20:13;;;;;;;11.32;2.47;;;5.80;99.90;;;;;;5054879;28;20554;-67
2022/03/28 00:22:39;;;;;;;10.18;3.03;;;5.80;99.90;;;;;;5054808;28;20048;-67
2022/03/28 00:25:07;;;;;;;10.93;2.88;;;5.80;99.90;;;;;;5054857;28;20025;-67
2022/03/28 00:27:32;;;;;;;10.00;2.22;;;5.80;99.90;;;;;;5054587;28;20032;-67
2022/03/28 00:29:58;;;;;;;7.75;1.90;;;5.70;99.90;;;;;;5054894;28;20051;-67
2022/03/28 00:32:24;;;;;;;4.90;1.92;;;5.80;99.90;;;;;;5054820;28;20032;-67
2022/03/28 00:34:50;;;;;;;6.38;1.95;;;5.70;99.90;;;;;;5054580;28;20098;-67
2022/03/28 00:37:15;;;;;;;7.93;2.28;;;5.70;99.90;;;;;;5054564;28;20078;-67
2022/03/28 00:39:41;;;;;;;6.93;2.05;;;5.70;99.90;;;;;;5054390;28;20484;-67
2022/03/28 00:42:07;;;;;;;11.68;2.47;;;5.70;99.90;;;;;;5054745;28;20034;-68
2022/03/28 00:44:33;;;;;;;9.55;2.88;;;5.70;99.90;;;;;;5054700;28;20067;-68
2022/03/28 00:46:59;;;;;;;7.28;2.60;;;5.70;99.90;;;;;;5054373;28;20083;-68
2022/03/28 00:49:25;;;;;;;15.25;2.22;;;5.70;99.90;;;;;;5054446;28;20029;-67
2022/03/28 00:51:50;;;;;;;11.73;2.50;;;5.70;99.90;;;;;;5054654;28;20045;-68
2022/03/28 00:54:16;;;;;;;5.40;2.55;;;5.70;99.90;;;;;;5054268;28;20061;-68
2022/03/28 00:56:45;;;;;;;7.82;2.72;;;5.70;99.90;;;;;;5054144;28;20078;-68
2022/03/28 00:59:11;;;;;;;9.70;3.17;;;5.70;99.90;;;;;;5054069;28;20032;-68
2022/03/28 01:01:37;;;;;;;10.07;3.63;;;5.70;99.90;;;;;;5054204;28;20385;-68
2022/03/28 01:04:05;;;;;;;12.68;3.50;;;5.70;99.90;;;;;;5054394;28;20025;-68
2022/03/28 01:06:32;;;;;;;9.13;3.40;;;5.70;99.90;;;;;;5054040;28;20028;-67
2022/03/28 01:08:57;;;;;;;10.32;3.88;;;5.70;99.90;;;;;;5053309;28;20021;-68
2022/03/28 01:11:24;;;;;;;9.07;4.85;;;5.60;99.90;;;;;;5054106;28;20032;-68
2022/03/28 01:13:50;;;;;;;12.68;5.03;;;5.60;99.90;;;;;;5054212;28;20098;-68
2022/03/28 01:16:15;;;;;;;13.85;5.45;;;5.70;99.90;;;;;;5053905;28;20052;-68
2022/03/28 01:18:47;;;;;;;8.57;4.57;;;5.70;99.90;;;;;;5053812;28;20477;-67
2022/03/28 01:21:13;;;;;;;19.55;4.70;;;5.70;99.90;;;;;;5053784;28;20035;-67
2022/03/28 01:23:39;;;;;;;10.40;4.53;;;5.70;99.90;;;;;;5053715;28;20029;-68
2022/03/28 01:26:06;;;;;;;13.40;5.05;;;5.70;99.90;;;;;;5035882;28;20052;-68
2022/03/28 01:28:33;;;;;;;12.88;5.07;;;5.70;99.90;;;;;;5053628;28;20186;-67
2022/03/28 01:30:58;;;;;;;11.00;4.78;;;5.70;99.90;;;;;;5053577;28;20025;-67
2022/03/28 01:33:24;;;;;;;12.63;5.10;;;5.70;99.90;;;;;;5053877;28;20025;-67
2022/03/28 01:35:53;;;;;;;9.82;5.07;;;5.70;99.90;;;;;;5053858;28;20021;-68
2022/03/28 01:38:20;;;;;;;18.40;6.50;;;5.70;99.90;;;;;;5053489;28;20025;-67
2022/03/28 01:40:49;;;;;;;9.30;5.07;;;5.70;99.90;;;;;;5053470;28;20029;-68
2022/03/28 01:43:15;;;;;;;20.95;4.68;;;5.70;99.90;;;;;;5053570;28;20033;-68
2022/03/28 01:45:41;;;;;;;18.90;6.32;;;5.70;99.90;;;;;;5053703;28;20021;-67
2022/03/28 01:48:08;;;;;;;9.73;4.53;;;5.70;99.90;;;;;;5053674;28;20017;-67
2022/03/28 01:50:34;;;;;;;11.75;4.55;;;5.70;99.90;;;;;;5053426;28;20025;-67
2022/03/28 01:53:00;;;;;;;8.32;3.30;;;5.60;99.90;;;;;;5053362;28;20025;-67
2022/03/28 01:55:26;;;;;;;7.07;3.25;;;5.50;99.90;;;;;;5053613;28;20154;-68
2022/03/28 01:57:52;;;;;;;9.32;3.60;;;5.50;99.90;;;;;;5053540;28;20224;-68
2022/03/28 02:00:21;;;;;;;7.65;2.90;;;5.40;99.90;;;;;;5053324;28;20021;-68
2022/03/28 02:02:47;;;;;;;10.93;3.60;;;5.40;99.90;;;;;;5053596;28;20040;-68
2022/03/28 02:05:14;;;;;;;8.70;2.70;;;5.40;99.90;;;;;;5053253;28;20087;-68
2022/03/28 02:07:41;;;;;;;6.47;2.55;;;5.40;99.90;;;;;;5053557;28;20055;-68
2022/03/28 02:10:11;;;;;;;13.63;2.78;;;5.40;99.90;;;;;;5053206;28;20025;-68
2022/03/28 02:12:37;;;;;;;5.10;2.60;;;5.50;99.90;;;;;;5053210;28;20108;-68
2022/03/28 02:15:06;;;;;;;7.00;2.78;;;5.50;99.90;;;;;;5053226;28;20076;-68
2022/03/28 02:17:35;;;;;;;3.30;2.78;;;5.50;99.90;;;;;;5053465;28;20022;-68
2022/03/28 02:20:02;;;;;;;7.40;1.70;;;5.50;99.90;;;;;;5054364;28;20017;-68
2022/03/28 02:22:28;;;;;;;6.10;2.00;;;5.50;99.90;;;;;;5057096;28;20021;-68
2022/03/28 02:24:53;;;;;;;4.38;1.63;;;5.50;99.90;;;;;;5057055;28;20083;-68
2022/03/28 02:27:19;;;;;;;2.47;1.58;;;5.50;99.90;;;;;;5057201;28;20096;-68
2022/03/28 02:29:44;;;;;;;6.88;1.30;;;5.30;99.90;;;;;;5056917;28;20024;-68
2022/03/28 02:32:12;;;;;;;10.07;1.92;;;5.30;99.90;;;;;;5056929;28;20032;-68
2022/03/28 02:34:38;;;;;;;9.00;1.40;;;5.30;99.90;;;;;;5056940;28;20021;-68
2022/03/28 02:37:04;;;;;;;6.93;1.55;;;5.30;99.90;;;;;;5057145;28;20417;-68
2022/03/28 02:39:29;;;;;;;3.17;1.77;;;5.30;99.90;;;;;;5056677;28;20029;-68
2022/03/28 02:41:55;;;;;;;5.43;1.60;;;5.20;99.90;;;;;;5056767;28;20031;-68
2022/03/28 02:44:20;;;;;;;3.83;1.42;;;5.10;99.90;;;;;;5057045;28;20021;-68
2022/03/28 02:46:46;;;;;;;3.67;1.63;;;5.10;99.90;;;;;;5056928;28;20079;-68
2022/03/28 02:49:13;;;;;;;3.38;1.58;;;5.10;99.90;;;;;;5056724;28;20029;-68
2022/03/28 02:51:39;;;;;;;4.93;1.98;;;5.10;99.90;;;;;;5056569;28;20037;-68
2022/03/28 02:54:05;;;;;;;4.70;2.10;;;5.10;99.90;;;;;;5056591;28;20021;-68
2022/03/28 02:56:30;;;;;;;4.88;1.65;;;5.10;99.90;;;;;;5056500;28;20021;-68
2022/03/28 02:58:56;;;;;;;4.38;2.08;;;5.10;99.90;;;;;;5038505;28;20386;-68
2022/03/28 03:01:22;;;;;;;2.97;2.03;;;5.10;99.90;;;;;;5056700;28;20473;-68
2022/03/28 03:03:47;;;;;;;6.72;2.20;;;5.10;99.90;;;;;;5056417;28;20073;-68
2022/03/28 03:06:13;;;;;;;7.53;3.10;;;5.10;99.90;;;;;;5038592;28;20032;-68
2022/03/28 03:08:38;;;;;;;9.45;3.78;;;5.10;99.90;;;;;;5057082;28;20033;-68
2022/03/28 03:11:04;;;;;;;8.80;4.15;;;5.00;99.90;;;;;;5056238;28;20033;-68
2022/03/28 03:13:30;;;;;;;11.45;4.20;;;5.10;99.90;;;;;;5056518;28;20465;-68
2022/03/28 03:15:55;;;;;;;8.07;4.65;;;5.00;99.90;;;;;;5056088;28;20036;-68
2022/03/28 03:18:21;;;;;;;16.08;4.55;;;5.00;99.90;;;;;;5056522;28;20021;-67
2022/03/28 03:20:46;;;;;;;12.32;4.38;;;5.10;99.90;;;;;;5056628;28;20025;-67
2022/03/28 03:23:12;;;;;;;10.20;4.18;;;5.10;99.90;;;;;;5056317;28;20021;-67
2022/03/28 03:25:37;;;;;;;7.78;3.30;;;5.10;99.90;;;;;;5055967;28;20424;-68
2022/03/28 03:28:03;;;;;;;13.95;3.75;;;5.00;99.90;;;;;;5055880;28;20501;-68
2022/03/28 03:30:29;;;;;;;12.00;2.95;;;5.10;99.90;;;;;;5056065;28;20079;-67
2022/03/28 03:32:55;;;;;;;7.90;2.70;;;5.10;99.90;;;;;;5054776;28;20021;-68
2022/03/28 03:35:21;;;;;;;14.02;3.88;;;5.10;99.90;;;;;;5055799;28;20028;-68
2022/03/28 03:37:46;;;;;;;6.70;3.55;;;5.10;99.90;;;;;;5056379;28;20369;-68
2022/03/28 03:40:12;;;;;;;15.45;3.85;;;5.10;99.90;;;;;;5055476;28;20162;-68
2022/03/28 03:42:38;;;;;;;7.25;3.38;;;5.10;99.90;;;;;;5065861;22;20049;-69
2022/03/28 03:45:05;;;;;;;9.18;3.78;;;5.20;99.90;;;;;;5035555;28;20021;-69
2022/03/28 03:47:31;;;;;;;5.07;3.17;;;5.20;99.90;;;;;;5035570;28;20021;-70
2022/03/28 03:49:57;;;;;;;3.08;2.70;;;5.20;99.90;;;;;;5035735;28;20389;-70
2022/03/28 03:52:22;;;;;;;7.85;3.13;;;5.10;99.90;;;;;;5035266;28;20029;-70
2022/03/28 03:54:48;;;;;;;8.10;3.30;;;5.20;99.90;;;;;;5035374;28;20021;-71
2022/03/28 03:57:14;;;;;;;14.27;3.50;;;5.10;99.90;;;;;;5035634;28;20025;-71
2022/03/28 03:59:40;;;;;;;13.40;3.33;;;5.10;99.90;;;;;;5035314;28;20095;-71
2022/03/28 04:02:06;;;;;;;7.82;3.13;;;5.10;99.90;;;;;;5035459;28;20026;-71
2022/03/28 04:04:31;;;;;;;9.88;3.05;;;5.10;99.90;;;;;;5035211;28;20030;-71
2022/03/28 04:06:57;;;;;;;4.55;3.33;;;5.10;99.90;;;;;;5035179;28;20108;-71
2022/03/28 04:09:22;;;;;;;7.63;3.03;;;5.10;99.90;;;;;;5035081;28;20083;-71
2022/03/28 04:11:48;;;;;;;6.20;2.90;;;5.10;99.90;;;;;;5034902;28;20033;-71
2022/03/28 04:14:14;;;;;;;9.65;3.08;;;5.10;99.90;;;;;;5034984;28;20469;-71
2022/03/28 04:16:40;;;;;;;12.18;3.65;;;5.20;99.90;;;;;;5035126;28;20394;-71
2022/03/28 04:19:05;;;;;;;11.52;3.60;;;5.10;99.90;;;;;;5017159;28;20017;-69
2022/03/28 04:21:31;;;;;;;6.40;2.97;;;5.10;99.90;;;;;;5035345;28;20096;-69
2022/03/28 04:23:57;;;;;;;11.48;4.55;;;5.10;99.90;;;;;;5034810;28;20477;-70
2022/03/28 04:26:22;;;;;;;5.78;3.35;;;5.20;99.90;;;;;;5034737;28;20044;-70
2022/03/28 04:28:48;;;;;;;9.13;3.53;;;5.20;99.90;;;;;;5034973;28;20021;-71
2022/03/28 04:31:15;;;;;;;5.93;3.85;;;5.20;99.90;;;;;;5034530;28;20037;-69
2022/03/28 04:33:40;;;;;;;8.60;4.00;;;5.20;99.90;;;;;;5034658;28;20037;-69
2022/03/28 04:36:06;;;;;;;7.45;3.58;;;5.20;99.90;;;;;;5034635;28;20033;-69
2022/03/28 04:38:31;;;;;;;5.07;3.67;;;5.20;99.90;;;;;;5034548;28;20028;-69
2022/03/28 04:40:57;;;;;;;6.15;2.92;;;5.20;99.90;;;;;;5034602;28;20037;-70
2022/03/28 04:43:23;;;;;;;8.15;3.13;;;5.20;99.90;;;;;;5034307;28;20100;-70
2022/03/28 04:45:48;;;;;;;7.07;3.35;;;5.20;99.90;;;;;;5034402;28;20436;-70
2022/03/28 04:48:14;;;;;;;8.60;3.25;;;5.20;99.90;;;;;;5034310;28;20469;-70
2022/03/28 04:50:40;;;;;;;3.58;3.13;;;5.30;99.90;;;;;;5034312;28;20052;-70
2022/03/28 04:53:05;;;;;;;9.88;3.40;;;5.30;99.90;;;;;;5034088;28;20035;-70
2022/03/28 04:55:32;;;;;;;6.43;3.65;;;5.30;99.90;;;;;;5034216;28;20025;-70
2022/03/28 04:57:58;;;;;;;9.15;3.45;;;5.30;99.90;;;;;;5034152;28;20018;-70
2022/03/28 05:00:24;;;;;;;5.97;3.17;;;5.30;99.90;;;;;;5034373;28;20084;-70
2022/03/28 05:02:49;;;;;;;7.53;3.20;;;5.30;99.90;;;;;;5034015;28;20025;-70
2022/03/28 05:05:15;;;;;;;7.07;3.25;;;5.30;99.90;;;;;;5034058;28;20477;-71
2022/03/28 05:07:41;;;;;;;9.48;4.05;;;5.40;99.90;;;;;;5033994;28;20079;-70
2022/03/28 05:10:07;;;;;;;7.97;3.63;;;5.40;99.90;;;;;;5034176;28;20439;-70
2022/03/28 05:12:34;;;;;;;5.60;3.08;;;5.40;99.90;;;;;;5033780;28;20025;-70
2022/03/28 05:15:01;;;;;;;9.05;3.80;;;5.40;99.90;;;;;;5033881;28;20473;-69
2022/03/28 05:17:28;;;;;;;10.70;3.67;;;5.40;99.90;;;;;;5034114;28;20018;-69
2022/03/28 05:19:55;;;;;;;11.90;4.32;;;5.50;99.90;;;;;;5033791;28;20022;-69
2022/03/28 05:22:21;;;;;;;5.10;2.83;;;5.50;99.90;;;;;;5033948;28;20437;-69
2022/03/28 05:24:48;;;;;;;10.77;3.83;;;5.50;99.90;;;;;;5033756;28;20033;-71
2022/03/28 05:27:14;;;;;;;5.90;3.05;;;5.50;99.90;;;;;;5033677;28;20075;-69
2022/03/28 05:29:40;;;;;;;12.52;4.47;;;5.50;99.90;;;;;;5033674;28;20022;-69
2022/03/28 05:32:06;;;;;;;7.03;3.25;;;5.60;99.90;;;;;;5033469;28;20547;-69
2022/03/28 05:34:32;;;;;;;11.38;3.42;;;5.60;99.90;;;;;;5033603;28;20389;-69
2022/03/28 05:36:59;;;;;;;9.70;3.83;;;5.60;99.90;;;;;;5033561;28;20024;-69
2022/03/28 05:39:26;;;;;;;13.63;4.88;;;5.60;99.90;;;;;;5033804;28;20029;-69
2022/03/28 05:41:52;;;;;;;8.52;4.35;;;5.70;99.90;;;;;;5033321;28;20060;-70
2022/03/28 05:44:19;;;;;;;11.50;3.35;;;5.70;99.90;;;;;;5033755;28;20380;-70
2022/03/28 05:46:45;;;;;;;8.38;3.40;;;5.70;99.90;;;;;;5033713;28;20104;-71
2022/03/28 05:49:11;;;;;;;8.25;3.67;;;5.70;99.90;;;;;;5033693;28;20472;-71
2022/03/28 05:51:36;;;;;;;8.23;4.40;;;5.70;99.90;;;;;;5033615;28;20097;-71
2022/03/28 05:54:02;;;;;;;9.25;4.05;;;5.80;99.90;;;;;;5032942;28;20385;-71
2022/03/28 05:56:28;;;;;;;21.50;4.13;;;5.80;99.90;;;;;;5033221;28;20097;-71
2022/03/28 05:58:53;;;;;;;10.68;3.65;;;5.90;99.90;;;;;;5033597;28;20427;-71
2022/03/28 06:01:19;;;;;;;11.68;3.92;;;5.90;99.90;;;;;;5033230;28;20568;-71
2022/03/28 06:03:45;;;;;;;14.63;5.20;;;5.90;99.90;;;;;;5033340;28;20032;-69
2022/03/28 06:06:10;;;;;;;6.53;3.72;;;6.00;99.90;;;;;;5033236;28;20025;-69
2022/03/28 06:08:36;;;;;;;18.48;4.65;;;6.00;99.90;;;;;;5033220;28;20029;-69
2022/03/28 06:11:03;;;;;;;12.07;4.22;;;6.00;99.90;;;;;;5033325;28;20029;-69
2022/03/28 06:13:32;;;;;;;13.18;4.78;;;6.10;99.90;;;;;;5033132;28;20068;-69
2022/03/28 06:15:58;;;;;;;19.20;5.43;;;6.10;99.90;;;;;;5033112;28;20061;-70
2022/03/28 06:18:24;;;;;;;7.35;5.18;;;6.20;99.90;;;;;;5033647;28;20025;-70
2022/03/28 06:20:50;;;;;;;11.95;5.35;;;6.20;99.90;;;;;;5033642;28;20026;-70
2022/03/28 06:23:16;;;;;;;9.77;5.90;;;6.20;99.90;;;;;;5032990;28;20041;-70
2022/03/28 06:25:41;;;;;;;14.48;5.88;;;6.30;99.90;;;;;;5033080;28;20022;-70
2022/03/28 06:28:07;;;;;;;11.45;6.00;;;6.30;99.90;;;;;;5033012;28;20021;-70
2022/03/28 06:30:33;;;;;;;14.43;6.03;;;6.40;99.90;;;;;;5033262;28;20033;-71
2022/03/28 06:32:59;;;;;;;16.40;5.53;;;6.40;99.90;;;;;;5032890;28;20076;-71
2022/03/28 06:35:24;;;;;;;15.70;5.97;;;6.40;99.90;;;;;;5033225;28;20025;-71
2022/03/28 06:37:52;;;;;;;12.10;6.30;;;6.50;99.90;;;;;;5032938;28;20061;-69
2022/03/28 06:40:18;;;;;;;13.07;6.43;;;6.50;99.90;;;;;;5032737;28;20032;-69
2022/03/28 06:42:44;;;;;;;13.68;7.75;;;6.60;99.90;;;;;;5032777;28;20039;-70
2022/03/28 06:45:10;;;;;;;16.45;8.07;;;6.60;99.90;;;;;;5033164;28;20029;-70
2022/03/28 06:47:39;;;;;;;11.25;6.22;;;6.70;99.90;;;;;;5032848;28;20026;-70
2022/03/28 06:50:07;;;;;;;20.63;7.47;;;6.70;99.90;;;;;;5033125;28;20022;-69
2022/03/28 06:52:33;;;;;;;10.32;6.18;;;6.70;99.90;;;;;;5032659;28;20031;-69
2022/03/28 06:54:59;;;;;;;15.60;6.78;;;6.80;99.90;;;;;;5032795;28;20492;-69
2022/03/28 06:57:25;;;;;;;17.52;7.63;;;6.80;99.90;;;;;;5032977;28;20104;-69
2022/03/28 06:59:50;;;;;;;13.68;7.80;;;6.90;99.90;;;;;;5032741;28;20096;-69
2022/03/28 07:02:16;;;;;;;16.83;7.93;;;6.90;99.90;;;;;;5032661;28;20105;-69
2022/03/28 07:04:41;;;;;;;14.98;7.53;;;6.90;99.90;;;;;;5032683;28;20026;-70
2022/03/28 07:07:10;;;;;;;18.88;7.90;;;6.90;99.90;;;;;;5033939;28;20033;-70
2022/03/28 07:09:36;;;;;;;14.77;8.10;;;7.00;99.90;;;;;;5036226;28;20113;-70
2022/03/28 07:12:03;;;;;;;14.80;7.70;;;7.00;99.90;;;;;;5036283;28;20096;-70
2022/03/28 07:14:29;;;;;;;17.05;8.07;;;7.10;99.90;;;;;;5036135;28;20091;-70
2022/03/28 07:16:55;;;;;;;21.48;7.70;;;7.10;99.90;;;;;;5036075;28;20477;-70
2022/03/28 07:19:21;;;;;;;16.48;7.78;;;7.10;99.90;;;;;;5036029;28;20536;-70
2022/03/28 07:21:46;;;;;;;18.38;8.82;;;7.20;99.90;;;;;;5036106;28;20026;-70
2022/03/28 07:24:12;;;;;;;11.80;7.78;;;7.20;99.90;;;;;;5035947;28;20022;-70
2022/03/28 07:26:38;;;;;;;11.82;7.95;;;7.20;99.90;;;;;;5035926;28;20048;-70
2022/03/28 07:29:04;;;;;;;15.60;8.52;;;7.20;99.90;;;;;;5035886;28;20104;-70
2022/03/28 07:31:30;;;;;;;16.50;9.65;;;7.20;99.90;;;;;;5035992;28;20033;-68
2022/03/28 07:34:29;;;;;;;18.38;9.02;;;7.30;99.90;;;;;;5035801;28;20436;-69
2022/03/28 07:36:42;;;;;;;14.70;8.45;;;7.30;99.90;;;;;;5035508;28;20020;-69
2022/03/28 07:39:07;;;;;;;18.10;8.65;;;7.30;99.90;;;;;;5035675;28;20417;-69
2022/03/28 07:41:33;;;;;;;17.70;10.07;;;7.30;99.90;;;;;;5035633;28;20123;-69
2022/03/28 07:43:58;;;;;;;16.60;9.77;;;7.30;99.90;;;;;;5035825;28;20025;-69
2022/03/28 07:46:24;;;;;;;25.73;10.55;;;7.30;99.90;;;;;;5035519;28;20029;-68
2022/03/28 07:48:50;;;;;;;26.17;10.43;;;7.30;99.90;;;;;;5035514;28;20424;-68
2022/03/28 07:51:15;;;;;;;21.65;10.45;;;7.40;99.90;;;;;;5035301;28;20032;-70
2022/03/28 07:53:41;;;;;;;16.50;9.60;;;7.30;99.90;;;;;;5035429;28;20491;-69
2022/03/28 07:56:07;;;;;;;19.00;9.20;;;7.40;99.90;;;;;;5035326;28;20452;-68
2022/03/28 07:58:32;;;;;;;20.30;12.90;;;7.40;99.90;;;;;;5035497;28;20075;-69
2022/03/28 08:00:58;;;;;;;21.30;11.30;;;7.40;99.90;;;;;;5035431;28;20405;-67
2022/03/28 08:03:24;;;;;;;24.02;11.45;;;7.40;99.90;;;;;;5035245;28;20469;-67
2022/03/28 08:05:53;;;;;;;21.77;12.90;;;7.40;99.90;;;;;;5035444;28;20021;-67
2022/03/28 08:08:19;;;;;;;28.27;15.38;;;7.40;99.90;;;;;;5035104;28;20053;-67
2022/03/28 08:10:45;;;;;;;21.38;11.32;;;7.40;99.90;;;;;;5035106;28;20029;-67
2022/03/28 08:13:11;;;;;;;30.30;14.07;;;7.40;99.90;;;;;;5034894;28;20075;-68
2022/03/28 08:15:36;;;;;;;68.25;49.85;;;7.40;99.90;;;;;;5035273;28;20508;-69
2022/03/28 08:18:02;;;;;;;26.33;16.80;;;7.50;99.90;;;;;;5016769;28;20030;-68
2022/03/28 08:20:28;;;;;;;21.23;10.82;;;7.50;99.90;;;;;;5035171;28;20457;-70
2022/03/28 08:22:54;;;;;;;18.90;11.48;;;7.50;99.90;;;;;;5034864;28;20078;-71
2022/03/28 08:25:21;;;;;;;21.95;12.57;;;7.50;99.90;;;;;;5034828;28;20028;-70
2022/03/28 08:27:47;;;;;;;21.60;13.02;;;7.40;99.90;;;;;;5034757;28;20465;-68
2022/03/28 08:30:13;;;;;;;29.30;11.30;;;7.50;99.90;;;;;;5034958;28;20037;-68
2022/03/28 08:32:40;;;;;;;22.08;12.15;;;7.40;99.90;;;;;;5034531;28;20429;-67
2022/03/28 08:35:06;;;;;;;25.60;12.65;;;7.40;99.90;;;;;;5034613;28;20049;-68
2022/03/28 08:37:32;;;;;;;18.75;11.57;;;7.50;99.90;;;;;;5034597;28;20034;-68
2022/03/28 08:39:59;;;;;;;19.63;11.82;;;7.50;99.90;;;;;;5034804;28;20466;-70
2022/03/28 08:42:26;;;;;;;29.25;12.77;;;7.40;99.90;;;;;;5034362;28;20041;-70
2022/03/28 08:44:52;;;;;;;29.77;12.20;;;7.40;99.90;;;;;;5034713;28;20032;-70
2022/03/28 08:47:19;;;;;;;33.13;14.48;;;7.50;99.90;;;;;;5034383;28;20032;-70
2022/03/28 08:49:49;;;;;;;28.98;12.90;;;7.50;99.90;;;;;;5034305;28;20039;-68
2022/03/28 08:52:16;;;;;;;24.95;13.70;;;7.50;99.90;;;;;;5034107;28;20477;-68
2022/03/28 08:54:42;;;;;;;35.58;15.25;;;7.50;99.90;;;;;;5034266;28;20033;-68
2022/03/28 08:57:07;;;;;;;25.85;13.80;;;7.50;99.90;;;;;;5034747;28;20454;-69
2022/03/28 08:59:34;;;;;;;39.47;15.02;;;7.60;99.90;;;;;;5034424;28;20040;-69
2022/03/28 09:02:01;;;;;;;19.23;12.52;;;7.60;99.90;;;;;;5034018;28;20547;-70
2022/03/28 09:04:27;;;;;;;26.67;13.73;;;7.70;99.90;;;;;;5034366;28;20112;-70
2022/03/28 09:06:52;;;;;;;30.20;14.93;;;7.60;99.90;;;;;;5034295;28;20125;-70
2022/03/28 09:09:32;;;;;;;36.78;15.88;;;7.60;99.90;;;;;;5033972;28;20085;-70
2022/03/28 09:12:12;;;;;;;26.27;15.45;;;7.60;99.90;;;;;;5034095;28;20028;-69
2022/03/28 09:14:40;;;;;;;35.35;16.58;;;7.70;99.90;;;;;;5034196;28;20104;-69
2022/03/28 09:17:11;;;;;;;30.00;14.48;;;7.60;99.90;;;;;;5033990;28;20013;-67
2022/03/28 09:19:46;;;;;;;34.00;15.57;;;7.60;99.90;;;;;;5033869;28;20469;-67
2022/03/28 09:22:15;;;;;;;34.05;17.88;;;7.60;99.90;;;;;;5033694;28;20074;-68
2022/03/28 09:24:41;;;;;;;37.97;17.33;;;7.60;99.90;;;;;;5033753;28;20633;-69
2022/03/28 09:27:19;;;;;;;32.90;16.52;;;7.60;99.90;;;;;;5033793;28;20032;-69
2022/03/28 09:30:07;;;;;;;32.70;15.00;;;7.70;99.90;;;;;;5033276;28;20025;-69
2022/03/28 09:32:35;;;;;;;41.17;17.40;;;7.70;99.90;;;;;;5033532;28;20513;-69
2022/03/28 09:35:10;;;;;;;29.88;16.20;;;7.60;99.90;;;;;;5033666;28;20026;-69
2022/03/28 09:38:04;;;;;;;26.50;16.45;;;7.70;99.90;;;;;;5033801;28;20110;-70
2022/03/28 09:40:43;;;;;;;25.98;15.32;;;7.70;99.90;;;;;;5034081;28;20363;-71
2022/03/28 09:43:22;;;;;;;27.63;15.73;;;7.70;99.90;;;;;;5060868;22;20049;-67
2022/03/28 09:45:50;;;;;;;29.80;17.42;;;7.60;99.90;;;;;;5053678;28;20025;-67
2022/03/28 09:48:19;;;;;;;34.55;16.45;;;7.50;99.90;;;;;;5053678;28;20025;-67
2022/03/28 09:50:55;;;;;;;32.40;15.35;;;7.60;99.90;;;;;;5053666;28;20032;-68
2022/03/28 09:53:25;;;;;;;33.83;15.73;;;7.60;99.90;;;;;;5053387;28;20033;-68
2022/03/28 09:55:59;;;;;;;25.60;15.80;;;7.60;99.90;;;;;;5053330;28;20017;-68
2022/03/28 09:58:39;;;;;;;33.70;15.50;;;7.60;99.90;;;;;;5053558;28;20530;-68
2022/03/28 10:01:07;;;;;;;29.10;15.65;;;7.60;99.90;;;;;;5053488;28;20021;-68
2022/03/28 10:03:35;;;;;;;29.10;16.52;;;7.60;99.90;;;;;;5053322;28;20013;-67
2022/03/28 10:06:02;;;;;;;42.53;15.93;;;7.50;99.90;;;;;;5053494;28;20384;-68
2022/03/28 10:08:28;;;;;;;30.65;15.98;;;7.50;99.90;;;;;;5053752;28;20507;-68
2022/03/28 10:10:58;;;;;;;34.63;16.80;;;7.50;99.90;;;;;;5053463;28;20021;-68
2022/03/28 10:13:24;;;;;;;25.20;14.73;;;7.50;99.90;;;;;;5053349;28;20028;-68
2022/03/28 10:15:51;;;;;;;30.38;14.88;;;7.50;99.90;;;;;;5053461;28;20017;-68
2022/03/28 10:18:17;;;;;;;30.38;14.90;;;7.50;99.90;;;;;;5053113;28;20103;-68
2022/03/28 10:20:46;;;;;;;29.45;15.32;;;7.40;99.90;;;;;;5053119;28;20028;-68
2022/03/28 10:23:16;;;;;;;31.42;18.85;;;7.40;99.90;;;;;;5053019;28;20498;-68
2022/03/28 10:25:42;;;;;;;39.15;17.13;;;7.40;99.90;;;;;;5053346;28;20033;-68
2022/03/28 10:28:09;;;;;;;38.30;18.40;;;7.40;99.90;;;;;;5053314;28;20031;-68
2022/03/28 10:30:35;;;;;;;29.75;16.30;;;7.40;99.90;;;;;;5052996;28;20472;-68
2022/03/28 10:33:20;;;;;;;34.88;18.58;;;7.40;99.90;;;;;;5052835;28;20079;-68
2022/03/28 10:35:59;;;;;;;37.35;18.15;;;7.50;99.90;;;;;;5053341;28;20048;-68
2022/03/28 10:38:25;;;;;;;30.45;14.65;;;7.40;99.90;;;;;;5052943;28;20025;-68
2022/03/28 10:41:05;;;;;;;34.17;15.52;;;7.50;99.90;;;;;;5054145;28;20469;-68
2022/03/28 10:43:33;;;;;;;30.17;16.83;;;7.50;99.90;;;;;;5056623;28;20112;-68
2022/03/28 10:46:06;;;;;;;33.13;16.20;;;7.60;99.90;;;;;;5056600;28;20025;-68
2022/03/28 10:48:41;;;;;;;30.42;15.13;;;7.60;99.90;;;;;;5056945;28;20028;-68
2022/03/28 10:51:08;;;;;;;25.33;15.50;;;7.70;99.90;;;;;;5056859;28;20021;-68
2022/03/28 10:53:40;;;;;;;30.13;13.38;;;7.80;99.90;;;;;;5056529;28;20028;-68
2022/03/28 10:56:13;;;;;;;34.42;14.38;;;7.80;99.90;;;;;;5056544;28;20050;-68
2022/03/28 10:58:44;;;;;;;40.05;15.00;;;7.80;99.90;;;;;;5056774;28;20021;-67
2022/03/28 11:01:13;;;;;;;24.70;14.50;;;7.70;99.90;;;;;;5056413;28;20032;-68
2022/03/28 11:03:52;;;;;;;23.27;13.35;;;7.60;99.90;;;;;;5056207;28;20053;-68
2022/03/28 11:06:20;;;;;;;29.60;12.73;;;7.50;99.90;;;;;;5056641;28;20021;-68
2022/03/28 11:08:58;;;;;;;22.63;13.32;;;7.50;99.90;;;;;;5057130;28;20342;-68
2022/03/28 11:11:25;;;;;;;26.92;13.15;;;7.60;99.90;;;;;;5056346;28;20035;-68
2022/03/28 11:14:18;;;;;;;21.17;11.95;;;7.70;99.90;;;;;;5056258;28;20052;-68
2022/03/28 11:16:54;;;;;;;17.98;11.32;;;7.80;99.90;;;;;;5056851;28;20409;-68
2022/03/28 11:19:29;;;;;;;20.08;11.50;;;7.90;99.90;;;;;;5056280;28;20036;-68
2022/03/28 11:21:57;;;;;;;24.17;13.30;;;7.90;99.90;;;;;;5056028;28;20025;-68
2022/03/28 11:24:44;;;;;;;24.63;13.05;;;8.00;99.90;;;;;;5056258;28;20024;-68
2022/03/28 11:27:10;;;;;;;21.10;12.45;;;8.00;99.90;;;;;;5055973;28;20108;-68
2022/03/28 11:29:39;;;;;;;20.52;12.75;;;8.20;99.90;;;;;;5055974;28;20026;-68
2022/03/28 11:32:13;;;;;;;25.90;13.35;;;8.10;99.90;;;;;;5056031;28;20029;-68
2022/03/28 11:34:39;;;;;;;27.83;12.15;;;8.10;99.90;;;;;;5055823;28;20059;-67
2022/03/28 11:37:05;;;;;;;17.85;9.25;;;8.20;99.90;;;;;;5055794;28;20017;-67
2022/03/28 11:39:50;;;;;;;33.45;12.35;;;8.20;99.90;;;;;;5056008;28;20465;-68
2022/03/28 11:42:23;;;;;;;22.30;11.38;;;8.20;99.90;;;;;;5055588;28;20033;-68
2022/03/28 11:44:50;;;;;;;25.20;12.63;;;8.30;99.90;;;;;;5055900;28;20033;-68
2022/03/28 11:47:17;;;;;;;22.33;12.23;;;8.30;99.90;;;;;;5055593;28;20061;-68
2022/03/28 11:49:54;;;;;;;20.73;11.85;;;8.40;99.90;;;;;;5055518;28;20029;-66
2022/03/28 11:52:21;;;;;;;33.50;11.20;;;8.30;99.90;;;;;;5054516;28;20021;-67
2022/03/28 11:54:47;;;;;;;19.73;11.30;;;8.30;99.90;;;;;;5055773;28;20017;-67
2022/03/28 12:00:18;;;;;;;23.42;12.68;;;8.40;99.90;;;;;;5055667;28;20071;-67
2022/03/28 12:02:58;;;;;;;19.83;11.82;;;8.50;99.90;;;;;;5055245;28;20109;-67
2022/03/28 12:05:35;;;;;;;18.15;10.88;;;8.40;99.90;;;;;;5055179;28;20103;-67
2022/03/28 12:08:13;;;;;;;22.75;10.25;;;8.20;99.90;;;;;;5038058;28;20036;-68
2022/03/28 12:10:44;;;;;;;26.92;11.68;;;8.20;99.90;;;;;;5055087;28;20532;-67
2022/03/28 12:13:11;;;;;;;22.90;10.65;;;8.30;99.90;;;;;;5055013;28;20029;-68
2022/03/28 12:15:45;;;;;;;20.20;10.60;;;8.30;99.90;;;;;;5055047;28;20032;-67
2022/03/28 12:18:13;;;;;;;24.60;12.27;;;8.20;99.90;;;;;;5055293;28;20027;-67
2022/03/28 12:20:41;;;;;;;24.42;12.38;;;8.20;99.90;;;;;;5054870;28;20043;-68
2022/03/28 12:23:08;;;;;;;24.15;12.95;;;8.30;99.90;;;;;;5036979;28;20052;-67
2022/03/28 12:25:48;;;;;;;23.27;12.55;;;8.30;99.90;;;;;;5054854;28;20028;-67
2022/03/28 12:28:24;;;;;;;27.77;12.88;;;8.30;99.90;;;;;;5055203;28;20423;-67
2022/03/28 12:30:51;;;;;;;29.77;12.93;;;8.50;99.90;;;;;;5054786;28;20032;-67
2022/03/28 12:33:18;;;;;;;23.65;11.88;;;8.60;99.90;;;;;;5054596;28;20496;-68
2022/03/28 12:35:46;;;;;;;25.48;12.30;;;8.80;99.90;;;;;;5054777;28;20489;-67
2022/03/28 12:38:22;;;;;;;24.27;14.13;;;8.70;99.90;;;;;;5054837;28;20475;-67
2022/03/28 12:40:52;;;;;;;24.75;12.05;;;8.80;99.90;;;;;;5054491;28;20071;-67
2022/03/28 12:43:20;;;;;;;27.10;11.07;;;8.80;99.90;;;;;;5054354;28;20037;-67
2022/03/28 12:45:46;;;;;;;20.10;11.57;;;8.80;99.90;;;;;;5054438;28;20024;-67
2022/03/28 12:48:12;;;;;;;25.73;11.65;;;8.70;99.90;;;;;;5054411;28;20496;-67
2022/03/28 12:51:00;;;;;;;30.13;10.98;;;8.60;99.90;;;;;;5054551;28;20036;-67